createdAt,value
2019-01-05T02:37:41.311Z,56.50
2019-01-05T02:40:20.694Z,56.40
2019-01-05T02:43:00.248Z,56.40
2019-01-05T02:45:39.805Z,56.40
2019-01-05T02:48:20.083Z,56.50
2019-01-05T02:50:59.453Z,56.40
2019-01-05T02:53:38.933Z,56.40
2019-01-05T02:56:18.681Z,56.40
2019-01-05T02:58:58.158Z,56.40
2019-01-05T03:01:37.610Z,56.40
2019-01-05T03:04:16.879Z,56.20
2019-01-05T03:06:56.466Z,56.20
2019-01-05T03:09:36.049Z,56.20
2019-01-05T03:12:15.524Z,56.20
2019-01-05T03:14:55.041Z,56.10
2019-01-05T03:17:34.264Z,56.00
2019-01-05T03:20:13.866Z,56.10
2019-01-05T03:22:53.377Z,56.00
2019-01-05T03:25:33.428Z,56.00
2019-01-05T03:28:13.056Z,56.10
2019-01-05T03:30:52.570Z,55.90
2019-01-05T03:33:32.159Z,56.10
2019-01-05T03:36:11.853Z,56.00
2019-01-05T03:38:51.466Z,56.00
2019-01-05T03:41:30.864Z,56.10
2019-01-05T03:44:10.200Z,56.00
2019-01-05T03:46:49.487Z,56.10
2019-01-05T03:49:29.199Z,56.00
2019-01-05T03:52:08.772Z,55.80
2019-01-05T03:54:48.060Z,56.10
2019-01-05T03:57:27.427Z,56.20
2019-01-05T04:00:07.018Z,56.20
2019-01-05T04:02:46.420Z,56.10
2019-01-05T04:05:26.236Z,55.90
2019-01-05T04:08:05.835Z,56.20
2019-01-05T04:10:42.111Z,56.20
2019-01-05T04:13:15.694Z,56.10
2019-01-05T04:16:12.064Z,56.20
2019-01-05T04:19:02.057Z,56.20
2019-01-05T04:21:52.515Z,56.20
2019-01-05T04:24:43.054Z,56.20
2019-01-05T04:27:33.593Z,56.20
2019-01-05T04:30:22.670Z,56.20
2019-01-05T04:32:53.413Z,56.20
2019-01-05T04:35:24.148Z,56.10
2019-01-05T04:38:10.169Z,56.20
2019-01-05T04:40:55.855Z,56.20
2019-01-05T04:43:46.296Z,56.20
2019-01-05T04:46:42.895Z,56.20
2019-01-05T04:49:16.515Z,56.10
2019-01-05T04:51:53.198Z,56.10
2019-01-05T04:54:55.473Z,56.20
2019-01-05T04:57:46.018Z,56.10
2019-01-05T05:00:19.291Z,56.10
2019-01-05T05:02:52.722Z,56.10
2019-01-05T05:05:41.400Z,56.00
2019-01-05T05:08:42.538Z,56.00
2019-01-05T05:11:46.653Z,56.00
2019-01-05T05:14:23.589Z,56.00
2019-01-05T05:17:12.353Z,56.00
2019-01-05T05:19:43.093Z,56.00
2019-01-05T05:22:45.500Z,56.00
2019-01-05T05:25:34.257Z,56.10
2019-01-05T05:28:21.530Z,56.00
2019-01-05T05:31:11.680Z,56.00
2019-01-05T05:33:42.426Z,56.10
2019-01-05T05:36:43.636Z,56.00
2019-01-05T05:39:20.126Z,56.10
2019-01-05T05:42:23.912Z,55.90
2019-01-05T05:45:20.574Z,55.90
2019-01-05T05:48:00.741Z,56.00
2019-01-05T05:50:46.639Z,55.90
2019-01-05T05:53:17.378Z,55.90
2019-01-05T05:56:06.157Z,55.90
2019-01-05T05:58:49.046Z,55.90
2019-01-05T06:01:22.322Z,55.90
2019-01-05T06:04:18.791Z,55.70
2019-01-05T06:07:18.211Z,55.70
2019-01-05T06:10:06.659Z,55.70
2019-01-05T06:12:53.890Z,55.80
2019-01-05T06:15:40.998Z,55.70
2019-01-05T06:18:26.956Z,55.70
2019-01-05T06:21:03.535Z,55.70
2019-01-05T06:23:35.922Z,55.60
2019-01-05T06:26:24.892Z,55.70
2019-01-05T06:28:58.202Z,55.60
2019-01-05T06:31:57.694Z,56.30
2019-01-05T06:34:47.881Z,55.60
2019-01-05T06:37:18.729Z,55.60
2019-01-05T06:39:58.198Z,55.60
2019-01-05T06:42:44.197Z,56.30
2019-01-05T06:45:33.166Z,55.60
2019-01-05T06:48:22.002Z,55.50
2019-01-05T06:51:21.625Z,55.50
2019-01-05T06:54:03.894Z,55.50
2019-01-05T06:56:52.465Z,55.50
2019-01-05T06:59:56.210Z,55.60
2019-01-05T07:02:46.642Z,55.50
2019-01-05T07:05:50.579Z,55.50
2019-01-05T07:08:40.690Z,56.20
2019-01-05T07:11:26.748Z,55.50
2019-01-05T07:14:14.220Z,55.50
2019-01-05T07:17:16.262Z,55.60
2019-01-05T07:19:49.821Z,55.40
2019-01-05T07:22:55.069Z,55.40
2019-01-05T07:25:49.948Z,55.30
2019-01-05T07:28:40.010Z,55.30
2019-01-05T07:31:25.762Z,55.30
2019-01-05T07:34:02.211Z,55.30
2019-01-05T07:39:31.321Z,55.20
2019-01-05T07:45:28.695Z,55.00
2019-01-05T07:48:22.249Z,55.00
2019-01-05T07:51:26.507Z,54.90
2019-01-05T07:54:08.809Z,54.90
2019-01-05T07:56:51.662Z,54.80
2019-01-05T07:59:37.291Z,54.90
2019-01-05T08:02:38.219Z,54.90
2019-01-05T08:05:40.465Z,54.90
2019-01-05T08:08:23.167Z,54.90
2019-01-05T08:11:26.798Z,54.90
2019-01-05T08:14:00.521Z,55.00
2019-01-05T08:16:53.858Z,54.90
2019-01-05T08:19:50.445Z,54.90
2019-01-05T08:22:30.373Z,54.90
2019-01-05T08:25:25.143Z,54.90
2019-01-05T08:28:24.682Z,54.80
2019-01-05T08:31:04.306Z,54.80
2019-01-05T08:33:41.225Z,54.90
2019-01-05T08:36:30.007Z,55.00
2019-01-05T08:39:06.702Z,55.00
2019-01-05T08:41:56.721Z,55.10
2019-01-05T08:44:43.892Z,55.10
2019-01-05T08:47:23.601Z,55.30
2019-01-05T08:50:23.045Z,55.40
2019-01-05T08:53:12.713Z,55.50
2019-01-05T08:55:46.467Z,56.00
2019-01-05T08:58:20.247Z,55.60
2019-01-05T09:01:07.644Z,55.20
2019-01-05T09:04:11.470Z,55.40
2019-01-05T09:07:05.132Z,55.20
2019-01-05T09:09:53.954Z,55.20
2019-01-05T09:12:42.742Z,55.20
2019-01-05T09:15:30.161Z,55.20
2019-01-05T09:18:26.791Z,55.10
2019-01-05T09:21:03.334Z,55.10
2019-01-05T09:23:56.053Z,55.00
2019-01-05T09:26:42.129Z,55.00
2019-01-05T09:29:35.638Z,55.00
2019-01-05T09:32:18.249Z,54.90
2019-01-05T09:35:12.014Z,54.70
2019-01-05T09:37:51.807Z,54.70
2019-01-05T09:40:37.719Z,54.90
2019-01-05T09:43:23.203Z,54.90
2019-01-05T09:46:26.003Z,54.90
2019-01-05T09:49:17.526Z,54.90
2019-01-05T09:51:59.906Z,55.00
2019-01-05T09:54:53.545Z,55.00
2019-01-05T09:57:35.770Z,54.90
2019-01-05T10:00:21.589Z,54.90
2019-01-05T10:02:58.366Z,54.90
2019-01-05T10:05:47.310Z,54.80
2019-01-05T10:12:05.947Z,54.70
2019-01-05T10:15:12.118Z,54.80
2019-01-05T13:20:30.016Z,54.20
2019-01-05T13:23:09.762Z,54.20
2019-01-05T13:25:49.183Z,54.10
2019-01-05T13:28:28.773Z,54.00
2019-01-05T13:31:08.491Z,54.10
2019-01-05T13:33:47.963Z,54.10
2019-01-05T13:36:27.351Z,54.00
2019-01-05T13:39:07.047Z,54.00
2019-01-05T13:41:46.275Z,53.90
2019-01-05T13:44:26.013Z,53.70
2019-01-05T13:47:06.134Z,53.90
2019-01-05T13:49:45.579Z,54.20
2019-01-05T13:52:25.232Z,54.00
2019-01-05T13:55:04.523Z,54.00
2019-01-05T13:57:43.945Z,54.00
2019-01-05T14:00:23.348Z,53.80
2019-01-05T14:03:02.718Z,53.70
2019-01-05T14:05:42.160Z,53.80
2019-01-05T14:08:21.739Z,53.90
2019-01-05T14:11:01.384Z,54.10
2019-01-05T14:13:41.564Z,54.10
2019-01-05T14:16:20.983Z,54.10
2019-01-05T14:19:00.734Z,54.10
2019-01-05T14:21:40.844Z,54.00
2019-01-05T14:24:20.685Z,54.00
2019-01-05T14:27:00.841Z,53.90
2019-01-05T14:29:40.999Z,53.90
2019-01-05T14:32:20.569Z,53.90
2019-01-05T14:35:00.189Z,53.90
2019-01-05T14:37:39.631Z,53.90
2019-01-05T14:40:18.936Z,53.90
2019-01-05T14:42:58.443Z,53.90
2019-01-05T14:45:37.721Z,53.90
2019-01-05T14:48:17.634Z,53.80
2019-01-05T14:50:57.136Z,53.90
2019-01-05T14:53:36.682Z,53.70
2019-01-05T14:56:16.326Z,53.80
2019-01-05T14:58:56.559Z,53.70
2019-01-05T15:01:36.239Z,53.70
2019-01-05T15:04:16.464Z,53.80
2019-01-05T15:06:56.015Z,54.00
2019-01-05T15:09:35.719Z,53.90
2019-01-05T15:12:16.016Z,53.80
2019-01-05T15:14:56.487Z,53.80
2019-01-05T15:17:38.563Z,53.80
2019-01-05T15:20:17.468Z,53.80
2019-01-05T15:22:57.086Z,53.80
2019-01-05T15:25:36.667Z,53.70
2019-01-05T15:28:16.124Z,53.40
2019-01-05T15:30:55.739Z,53.70
2019-01-05T15:33:35.122Z,53.70
2019-01-05T15:36:14.593Z,53.90
2019-01-05T15:38:54.726Z,54.10
2019-01-05T15:41:34.640Z,54.10
2019-01-05T15:44:14.487Z,53.90
2019-01-05T15:46:54.138Z,53.90
2019-01-05T15:49:33.722Z,53.90
2019-01-05T15:52:13.146Z,53.90
2019-01-05T15:54:52.580Z,53.80
2019-01-05T15:57:32.217Z,53.70
2019-01-05T16:00:12.538Z,53.80
2019-01-05T16:02:52.751Z,53.80
2019-01-05T16:05:32.428Z,53.90
2019-01-05T16:08:14.898Z,54.00
2019-01-05T16:10:54.208Z,53.90
2019-01-05T16:13:32.545Z,53.90
2019-01-05T16:16:07.919Z,53.80
2019-01-05T16:18:43.307Z,53.80
2019-01-05T16:21:28.894Z,53.80
2019-01-05T16:24:16.070Z,54.00
2019-01-05T16:26:59.090Z,53.80
2019-01-05T16:29:25.037Z,53.90
2019-01-05T16:32:06.239Z,53.90
2019-01-05T16:34:51.671Z,53.90
2019-01-05T16:37:37.221Z,54.00
2019-01-05T16:40:06.759Z,53.90
2019-01-05T16:42:52.271Z,53.80
2019-01-05T16:45:37.541Z,53.80
2019-01-05T16:48:22.999Z,53.90
2019-01-05T16:51:04.152Z,54.20
2019-01-05T16:53:33.420Z,54.10
2019-01-05T16:56:05.251Z,53.90
2019-01-05T16:58:43.370Z,53.90
2019-01-05T17:01:15.214Z,53.90
2019-01-05T17:03:47.370Z,53.70
2019-01-05T17:06:33.451Z,53.60
2019-01-05T17:09:08.310Z,53.70
2019-01-05T17:11:40.370Z,54.00
2019-01-05T17:14:21.021Z,54.10
2019-01-05T17:16:50.123Z,54.10
2019-01-05T17:19:22.221Z,54.00
2019-01-05T17:21:51.327Z,54.10
2019-01-05T17:24:26.401Z,54.00
2019-01-05T17:26:55.509Z,53.80
2019-01-05T17:29:27.577Z,53.70
2019-01-05T17:31:56.777Z,53.50
2019-01-05T17:34:42.244Z,53.40
2019-01-05T17:37:11.349Z,53.70
2019-01-05T17:39:40.477Z,53.70
2019-01-05T17:42:09.574Z,53.70
2019-01-05T17:44:41.435Z,53.80
2019-01-05T17:47:10.566Z,53.90
2019-01-05T17:49:56.014Z,53.80
2019-01-05T17:52:36.936Z,53.80
2019-01-05T17:55:22.421Z,53.90
2019-01-05T17:58:09.843Z,54.00
2019-01-05T18:00:55.202Z,54.00
2019-01-05T18:03:40.634Z,53.90
2019-01-05T18:06:24.835Z,54.00
2019-01-05T18:09:00.016Z,54.10
2019-01-05T18:11:45.756Z,54.00
2019-01-05T18:14:14.851Z,54.00
2019-01-05T18:17:00.499Z,53.90
2019-01-05T18:19:45.979Z,53.80
2019-01-05T18:22:15.074Z,53.90
2019-01-05T18:24:45.949Z,53.80
2019-01-05T18:27:21.341Z,53.80
2019-01-05T18:29:53.229Z,53.70
2019-01-05T18:32:22.633Z,53.70
2019-01-05T18:35:06.547Z,53.70
2019-01-05T18:37:47.948Z,53.70
2019-01-05T18:40:20.254Z,53.60
2019-01-05T18:42:55.486Z,53.80
2019-01-05T18:45:36.654Z,54.40
2019-01-05T18:48:08.950Z,53.70
2019-01-05T18:50:40.842Z,53.70
2019-01-05T18:53:15.686Z,53.60
2019-01-05T18:55:44.795Z,53.50
2019-01-05T18:58:30.456Z,53.50
2019-01-05T19:01:15.786Z,53.50
2019-01-05T19:03:50.717Z,53.50
2019-01-05T19:06:26.025Z,53.50
2019-01-05T19:09:11.682Z,53.40
2019-01-05T19:11:41.214Z,53.40
2019-01-05T19:14:22.412Z,53.50
2019-01-05T19:16:51.546Z,53.60
2019-01-05T19:19:24.633Z,53.70
2019-01-05T19:22:05.711Z,53.70
2019-01-05T19:24:37.615Z,53.60
2019-01-05T19:27:22.081Z,53.50
2019-01-05T19:29:56.983Z,53.50
2019-01-05T19:32:42.419Z,53.70
2019-01-05T19:35:26.660Z,53.70
2019-01-05T19:43:29.826Z,53.80
2019-01-05T19:46:05.058Z,53.60
2019-01-05T19:48:50.178Z,53.60
2019-01-05T19:51:21.996Z,53.40
2019-01-05T19:53:57.006Z,53.50
2019-01-05T19:57:02.167Z,53.70
2019-01-05T19:59:47.631Z,53.70
2019-01-05T20:02:22.457Z,53.80
2019-01-05T20:05:08.063Z,53.80
2019-01-05T20:07:39.987Z,53.80
2019-01-05T20:10:15.645Z,53.80
2019-01-05T20:12:44.750Z,54.00
2019-01-05T20:15:13.866Z,53.70
2019-01-05T20:17:51.946Z,53.60
2019-01-05T20:20:21.063Z,53.50
2019-01-05T20:23:06.478Z,53.60
2019-01-05T20:25:38.493Z,53.60
2019-01-05T20:28:23.935Z,53.70
2019-01-05T20:31:09.471Z,53.70
2019-01-05T20:33:56.745Z,53.70
2019-01-05T20:36:28.518Z,53.50
2019-01-05T20:39:06.353Z,53.70
2019-01-05T20:41:38.391Z,53.60
2019-01-05T20:44:16.585Z,53.40
2019-01-05T20:46:54.528Z,53.50
2019-01-05T20:49:26.145Z,53.50
2019-01-05T20:52:13.515Z,53.60
2019-01-05T20:54:58.612Z,53.60
2019-01-05T20:57:30.373Z,53.80
2019-01-05T21:00:16.386Z,53.70
2019-01-05T21:02:51.264Z,53.70
2019-01-05T21:05:27.890Z,53.50
2019-01-05T21:07:57.157Z,53.70
2019-01-05T21:10:29.245Z,53.50
2019-01-05T21:13:01.466Z,53.40
2019-01-05T21:15:33.529Z,53.50
2019-01-05T21:18:14.758Z,53.70
2019-01-05T21:20:59.203Z,53.60
2019-01-05T21:23:34.310Z,53.40
2019-01-05T21:26:06.821Z,53.20
2019-01-05T21:28:54.617Z,53.30
2019-01-05T21:31:40.194Z,53.30
2019-01-05T21:34:17.817Z,53.30
2019-01-05T21:37:03.916Z,53.30
2019-01-05T21:39:33.185Z,53.20
2019-01-05T21:42:18.617Z,53.10
2019-01-05T21:44:47.953Z,53.20
2019-01-05T21:47:26.058Z,53.10
2019-01-05T21:50:04.130Z,53.20
2019-01-05T21:52:51.801Z,53.40
2019-01-05T21:55:33.238Z,53.30
2019-01-05T21:58:02.351Z,53.20
2019-01-05T22:00:47.762Z,53.20
2019-01-05T22:03:20.597Z,53.00
2019-01-05T22:05:49.982Z,53.00
2019-01-05T22:08:22.808Z,52.90
2019-01-05T22:11:10.249Z,52.90
2019-01-05T22:14:16.418Z,52.90
2019-01-05T23:58:32.748Z,52.20
